Terminal Aerodrome Forecast
Issued by NWS San Angelo, TX

Home | Current Version | Previous Version | Text Only | Print | Product List | Glossary On
Versions: 1 2 3 4 5 6 7 8 9 10 11 12 13 14
000
FTUS44 KSJT 292300
TAFSJT
TAF
KSJT 292337Z 3000/3024 23010KT P6SM SKC
     FM300200 01010KT P6SM SKC
     FM301500 05006KT P6SM FEW040=

USA.gov is the U.S. government's official web portal to all federal, state and local government web resources and services.